Tennessee — FM3908 — position and weather

sailwx.info

Track history (hours):
 
Tides and Currents Weather Stations Pressure Air Temp Water Temp Dewpoint Dewpoint Depression Visibility Wind Speed Wind Dir Waves Ship Positions

Tennessee

Last reported at 2014-Nov-22 04:32 UTC. Time now 2014-Nov-23 03:41 UTC.
Position N 43°31' E 004°44'.

Length 80 m; draft 0.3 m.

Type: Ship. MMSI: 227095770.

Date/timePositionNaut miles runAvg speedWind from/ knotsBaromVisibWave heightAir tempDewpointWater temp
2014-Nov-22 04:32N 43°31' E 004°44'6 6.1
2014-Nov-22 03:33N 43°25' E 004°45'1 0.7
2014-Nov-22 02:33N 43°26' E 004°46'0 0.0
2014-Nov-22 01:28N 43°26' E 004°46'0 0.0
2014-Nov-21 19:14N 43°26' E 004°46'2 1.0
2014-Nov-21 17:33N 43°27' E 004°47'5 5.2
2014-Nov-21 16:33N 43°26' E 004°55'5 4.8
2014-Nov-21 15:33N 43°24' E 005°01'0 0.3
2014-Nov-21 14:33N 43°24' E 005°01'0 0.2
2014-Nov-21 13:33N 43°24' E 005°01'0 0.0
2014-Nov-21 12:33N 43°24' E 005°01'0 0.2
2014-Nov-21 11:33N 43°24' E 005°01'0 0.0
2014-Nov-21 10:33N 43°24' E 005°01'0 0.0
2014-Nov-21 09:33N 43°24' E 005°01'0 0.0
2014-Nov-21 08:33N 43°24' E 005°01'0 0.0
2014-Nov-21 07:34N 43°24' E 005°01'0 0.0
2014-Nov-21 06:33N 43°24' E 005°01'0 0.0
2014-Nov-21 05:33N 43°24' E 005°01'0 0.0
2014-Nov-21 04:33N 43°24' E 005°01'0 0.0
2014-Nov-21 03:33N 43°24' E 005°01'0 0.0
2014-Nov-21 02:33N 43°24' E 005°01'0 0.0
2014-Nov-21 01:33N 43°24' E 005°01'0 0.0
2014-Nov-21 00:33N 43°24' E 005°01'0 0.0
2014-Nov-20 23:33N 43°24' E 005°01'0 0.0
2014-Nov-20 22:33N 43°24' E 005°01'0 0.0
2014-Nov-20 21:33N 43°24' E 005°01'0 0.0
2014-Nov-20 20:33N 43°24' E 005°01'0 0.0
2014-Nov-20 19:33N 43°24' E 005°01'0 0.0
2014-Nov-20 18:33N 43°24' E 005°01'0 0.0
2014-Nov-20 17:33N 43°24' E 005°01'0 0.1
2014-Nov-20 16:33N 43°24' E 005°01'6 6.1
2014-Nov-20 15:33N 43°25' E 004°52'5 4.4
2014-Nov-20 14:28N 43°26' E 004°46'0 0.2
2014-Nov-20 13:33N 43°26' E 004°46'0 0.0
2014-Nov-20 12:33N 43°26' E 004°46'0 0.0
2014-Nov-20 11:33N 43°26' E 004°46'0 0.0
2014-Nov-20 10:33N 43°26' E 004°46'0 0.0
2014-Nov-20 09:30N 43°26' E 004°46'0 0.0
2014-Nov-20 08:33N 43°26' E 004°46'0 0.0
2014-Nov-20 07:33N 43°26' E 004°46'0 0.0
2014-Nov-20 06:30N 43°26' E 004°46'0 0.0
2014-Nov-20 04:33N 43°26' E 004°46'0 0.0
2014-Nov-20 03:33N 43°26' E 004°46'0 0.0
2014-Nov-20 02:33N 43°26' E 004°46'0 0.0
2014-Nov-20 01:33N 43°26' E 004°46'0 0.0
2014-Nov-20 00:33N 43°26' E 004°46'0 0.0
2014-Nov-19 23:33N 43°26' E 004°46'0 0.0
2014-Nov-19 22:33N 43°26' E 004°46'0 0.0
2014-Nov-19 21:30N 43°26' E 004°46'0 0.0
2014-Nov-19 20:33N 43°26' E 004°46'0 0.0
2014-Nov-19 19:33N 43°26' E 004°46'0 0.0
2014-Nov-19 18:33N 43°26' E 004°46'0 0.1
2014-Nov-19 17:32N 43°26' E 004°46'8 8.2
2014-Nov-19 16:33N 43°33' E 004°42'42 1.9
2014-Nov-18 18:14N 43°26' E 003°46'0 0.0
2014-Nov-18 17:28N 43°26' E 003°46'0 0.0
2014-Nov-18 15:33N 43°26' E 003°46'3 0.8
2014-Nov-18 12:11N 43°24' E 003°43'0 0.0
2014-Nov-18 11:24N 43°24' E 003°43'0 0.0
2014-Nov-18 10:33N 43°24' E 003°43'0 0.0
2014-Nov-18 09:33N 43°24' E 003°43'0 0.0
2014-Nov-18 07:27N 43°24' E 003°43'10 1.6
2014-Nov-18 01:24N 43°31' E 003°53'  
Track history (hours):
 
Tides and Currents Weather Stations Pressure Air Temp Water Temp Dewpoint Dewpoint Depression Visibility Wind Speed Wind Dir Waves Ship Positions

Tennessee

Last reported at 2014-Nov-22 04:32 UTC. Time now 2014-Nov-23 03:41 UTC.
Position N 43°31' E 004°44'.

Length 80 m; draft 0.3 m.

Type: Ship. MMSI: 227095770.

Date/timePositionNaut miles runAvg speedWind from/ knotsBaromVisibWave heightAir tempDewpointWater temp
2014-Nov-22 04:32N 43°31' E 004°44'6 6.1
2014-Nov-22 03:33N 43°25' E 004°45'1 0.7
2014-Nov-22 02:33N 43°26' E 004°46'0 0.0
2014-Nov-22 01:28N 43°26' E 004°46'0 0.0
2014-Nov-21 19:14N 43°26' E 004°46'2 1.0
2014-Nov-21 17:33N 43°27' E 004°47'5 5.2
2014-Nov-21 16:33N 43°26' E 004°55'5 4.8
2014-Nov-21 15:33N 43°24' E 005°01'0 0.3
2014-Nov-21 14:33N 43°24' E 005°01'0 0.2
2014-Nov-21 13:33N 43°24' E 005°01'0 0.0
2014-Nov-21 12:33N 43°24' E 005°01'0 0.2
2014-Nov-21 11:33N 43°24' E 005°01'0 0.0
2014-Nov-21 10:33N 43°24' E 005°01'0 0.0
2014-Nov-21 09:33N 43°24' E 005°01'0 0.0
2014-Nov-21 08:33N 43°24' E 005°01'0 0.0
2014-Nov-21 07:34N 43°24' E 005°01'0 0.0
2014-Nov-21 06:33N 43°24' E 005°01'0 0.0
2014-Nov-21 05:33N 43°24' E 005°01'0 0.0
2014-Nov-21 04:33N 43°24' E 005°01'0 0.0
2014-Nov-21 03:33N 43°24' E 005°01'0 0.0
2014-Nov-21 02:33N 43°24' E 005°01'0 0.0
2014-Nov-21 01:33N 43°24' E 005°01'0 0.0
2014-Nov-21 00:33N 43°24' E 005°01'0 0.0
2014-Nov-20 23:33N 43°24' E 005°01'0 0.0
2014-Nov-20 22:33N 43°24' E 005°01'0 0.0
2014-Nov-20 21:33N 43°24' E 005°01'0 0.0
2014-Nov-20 20:33N 43°24' E 005°01'0 0.0
2014-Nov-20 19:33N 43°24' E 005°01'0 0.0
2014-Nov-20 18:33N 43°24' E 005°01'0 0.0
2014-Nov-20 17:33N 43°24' E 005°01'0 0.1
2014-Nov-20 16:33N 43°24' E 005°01'6 6.1
2014-Nov-20 15:33N 43°25' E 004°52'5 4.4
2014-Nov-20 14:28N 43°26' E 004°46'0 0.2
2014-Nov-20 13:33N 43°26' E 004°46'0 0.0
2014-Nov-20 12:33N 43°26' E 004°46'0 0.0
2014-Nov-20 11:33N 43°26' E 004°46'0 0.0
2014-Nov-20 10:33N 43°26' E 004°46'0 0.0
2014-Nov-20 09:30N 43°26' E 004°46'0 0.0
2014-Nov-20 08:33N 43°26' E 004°46'0 0.0
2014-Nov-20 07:33N 43°26' E 004°46'0 0.0
2014-Nov-20 06:30N 43°26' E 004°46'0 0.0
2014-Nov-20 04:33N 43°26' E 004°46'0 0.0
2014-Nov-20 03:33N 43°26' E 004°46'0 0.0
2014-Nov-20 02:33N 43°26' E 004°46'0 0.0
2014-Nov-20 01:33N 43°26' E 004°46'0 0.0
2014-Nov-20 00:33N 43°26' E 004°46'0 0.0
2014-Nov-19 23:33N 43°26' E 004°46'0 0.0
2014-Nov-19 22:33N 43°26' E 004°46'0 0.0
2014-Nov-19 21:30N 43°26' E 004°46'0 0.0
2014-Nov-19 20:33N 43°26' E 004°46'0 0.0
2014-Nov-19 19:33N 43°26' E 004°46'0 0.0
2014-Nov-19 18:33N 43°26' E 004°46'0 0.1
2014-Nov-19 17:32N 43°26' E 004°46'8 8.2
2014-Nov-19 16:33N 43°33' E 004°42'42 1.9
2014-Nov-18 18:14N 43°26' E 003°46'0 0.0
2014-Nov-18 17:28N 43°26' E 003°46'0 0.0
2014-Nov-18 15:33N 43°26' E 003°46'3 0.8
2014-Nov-18 12:11N 43°24' E 003°43'0 0.0
2014-Nov-18 11:24N 43°24' E 003°43'0 0.0
2014-Nov-18 10:33N 43°24' E 003°43'0 0.0
2014-Nov-18 09:33N 43°24' E 003°43'0 0.0
2014-Nov-18 07:27N 43°24' E 003°43'10 1.6
2014-Nov-18 01:24N 43°31' E 003°53'  

Dump ship's entire track history